Terminal Aerodrome Forecast
Issued by NWS

Home | Current Version | Previous Version | Text Only | Print | Product List | Glossary On
Versions: 1 2 3 4 5 6 7 8 9 10 11 12 13 14 15
000
FTUS46 KMFR 160200 AAA
TAFLMT
TAF AMD
KLMT 160218Z 1602/1624 18014KT P6SM SCT110 BKN200
     FM160400 17007KT P6SM SCT200
     FM162200 21009G14KT P6SM SCT100 BKN200=

USA.gov is the U.S. government's official web portal to all federal, state and local government web resources and services.